• Join FlightAware (Why Join?)
  • Login
  • US Flag 
06:14AM EST


 

Airport Tracker/Info


-or-


 

Live Flight TrackerFlight Track Log ✈ SWA975 ✈ 20-Apr-2013 ✈ KBDL - KFLL

Flight Track Log - Related Links

Times and Time Zones

All times are in EDT time to prevent confusion due to time zone crossing. See the SWA975 flight status page for this flight to view local times or setup timezone preferences in your user account.

Time Position Orientation Groundspeed Altitude Reporting Facility
EDT Latitude Longitude Course Direction KTS MPH feet Rate Location/Type
08:21AM 41.9292 -72.7053 217° Southwest 140 161 1,000  Level Boston Center
08:22AM 41.9103 -72.7247 217° Southwest 168 193 1,700 2,160 Climbing Boston Center
08:23AM 41.8561 -72.7217 178° South 240 276 4,200 2,220 Climbing Boston Center
08:24AM 41.7978 -72.6739 149° Southeast 257 296 6,200 2,760 Climbing Boston Center
08:25AM 41.7272 -72.6181 149° Southeast 268 308 9,800 2,400 Climbing Boston Center
08:26AM 41.6667 -72.5708 150° Southeast 281 323 11,100 1,740 Climbing Boston Center
08:27AM 41.5875 -72.4678 136° Southeast 336 387 13,300 2,580 Climbing Boston Center
08:28AM 41.5231 -72.3736 132° Southeast 374 430 16,300 2,760 Climbing Boston Center
08:29AM 41.4272 -72.3847 185° South 317 365 18,900 2,100 Climbing Boston Center
08:30AM 41.3606 -72.4372 211° Southwest 287 330 21,000 1,380 Climbing Boston Center
08:31AM 41.2583 -72.5283 214° Southwest 321 369 22,000 600 Climbing Boston Center
08:32AM 41.1792 -72.5944 212° Southwest 341 392 22,200 900 Climbing Boston Center
08:33AM 41.0978 -72.6631 212° Southwest 346 398 23,900 1,500 Climbing Boston Center
08:34AM 41.0119 -72.7317 211° Southwest 352 405 25,300 1,620 Climbing Boston Center
08:35AM 40.9264 -72.8000 211° Southwest 357 411 27,200 2,100 Climbing Boston Center
08:36AM 40.8367 -72.8489 202° Southwest 362 417 29,600 1,920 Climbing Boston Center
08:37AM 40.7511 -72.9058 207° Southwest 352 405 31,100 1,320 Climbing Boston Center
08:38AM 40.6800 -72.9683 214° Southwest 352 405 32,300 1,260 Climbing Boston Center
08:39AM 40.6025 -73.0442 217° Southwest 347 399 33,700 1,380 Climbing Boston Center
08:40AM 40.5269 -73.1172 216° Southwest 347 399 35,100 1,140 Climbing Boston Center
08:41AM 40.4536 -73.1928 218° Southwest 347 399 36,000 600 Climbing Boston Center
08:42AM 40.3822 -73.2656 218° Southwest 347 399 36,300 420 Climbing Boston Center
08:43AM 40.3067 -73.3408 217° Southwest 347 399 36,900 600 Climbing Boston Center
08:44AM 40.2331 -73.4106 216° Southwest 347 399 37,500 300 Climbing Boston Center
08:47AM 40.0531 -73.5911 218° Southwest 337 388 38,000 120 Climbing Washington Center
08:48AM 39.9792 -73.6611 216° Southwest 338 389 38,000  Level Washington Center
08:49AM 39.9033 -73.7333 216° Southwest 338 389 38,000  Level Washington Center
08:50AM 39.8336 -73.8056 219° Southwest 351 404 38,000  Level Washington Center
08:51AM 39.7575 -73.8750 215° Southwest 346 398 38,000  Level Washington Center
08:52AM 39.6856 -73.9467 217° Southwest 346 398 38,000  Level Washington Center
08:53AM 39.6114 -74.0158 216° Southwest 346 398 38,000  Level Washington Center
08:54AM 39.5331 -74.0794 212° Southwest 346 398 38,000  Level Washington Center
08:55AM 39.4711 -74.1292 212° Southwest 341 392 38,000  Level Washington Center
08:56AM 39.3844 -74.1981 212° Southwest 336 387 38,000  Level Washington Center
08:57AM 39.3039 -74.2611 211° Southwest 336 387 38,000  Level Washington Center
08:58AM 39.2275 -74.3217 212° Southwest 336 387 38,000  Level Washington Center
08:59AM 39.1508 -74.3817 211° Southwest 336 387 38,000  Level Washington Center
09:00AM 39.0744 -74.4392 210° Southwest 341 392 38,000  Level Washington Center
09:01AM 38.9978 -74.5019 212° Southwest 336 387 38,000  Level Washington Center
09:02AM 38.9172 -74.5644 211° Southwest 336 387 38,000  Level Washington Center
09:03AM 38.8383 -74.6269 212° Southwest 343 395 38,000  Level Washington Center
09:04AM 38.7597 -74.6864 211° Southwest 338 389 38,000  Level Washington Center
09:05AM 38.6767 -74.7486 210° Southwest 338 389 38,000  Level Washington Center
09:06AM 38.5981 -74.8106 212° Southwest 338 389 38,000  Level Washington Center
09:07AM 38.5192 -74.8700 211° Southwest 338 389 38,000  Level Washington Center
09:08AM 38.4381 -74.9317 211° Southwest 343 395 38,000  Level Washington Center
09:09AM 38.3614 -74.9933 212° Southwest 338 389 38,000  Level Washington Center
09:10AM 38.2742 -75.0656 213° Southwest 345 397 38,000  Level Washington Center
09:11AM 38.1972 -75.1267 212° Southwest 345 397 38,000  Level Washington Center
09:12AM 38.1161 -75.1881 211° Southwest 340 391 38,000  Level Washington Center
09:13AM 38.0350 -75.2464 210° Southwest 340 391 38,000  Level Washington Center
09:14AM 37.9539 -75.3047 210° Southwest 340 391 38,000  Level Washington Center
09:15AM 37.8747 -75.3628 210° Southwest 340 391 38,000  Level Washington Center
09:16AM 37.7933 -75.4261 212° Southwest 340 391 38,000  Level Washington Center
09:17AM 37.7122 -75.4894 212° Southwest 340 391 38,000  Level Washington Center
09:18AM 37.6308 -75.5472 209° Southwest 340 391 38,000  Level Washington Center
09:19AM 37.5494 -75.6103 212° Southwest 340 391 38,000  Level Washington Center
09:20AM 37.4661 -75.6703 210° Southwest 340 391 38,000  Level Washington Center
09:21AM 37.3867 -75.7303 211° Southwest 345 397 38,000  Level Washington Center
09:22AM 37.3033 -75.7931 211° Southwest 345 397 38,000  Level Washington Center
09:23AM 37.2197 -75.8528 210° Southwest 345 397 38,000  Level Washington Center
09:24AM 37.1383 -75.9122 210° Southwest 345 397 38,000  Level Washington Center
09:25AM 37.0547 -75.9744 211° Southwest 345 397 38,000  Level Washington Center
09:26AM 36.9667 -76.0339 208° Southwest 345 397 38,000  Level Washington Center
09:27AM 36.8789 -76.0906 207° Southwest 355 409 38,000  Level Washington Center
09:28AM 36.7975 -76.1289 201° Southwest 355 409 38,000  Level Washington Center
09:29AM 36.7053 -76.1800 204° Southwest 360 414 38,000  Level Washington Center
09:30AM 36.6156 -76.2208 200° South 354 407 38,000  Level Washington Center
09:31AM 36.5256 -76.2639 201° Southwest 354 407 38,000  Level Washington Center
09:32AM 36.4314 -76.3072 200° South 354 407 38,000  Level Washington Center
09:33AM 36.3372 -76.3525 201° Southwest 360 414 38,000  Level Washington Center
09:34AM 36.2472 -76.3956 201° Southwest 360 414 38,000  Level Washington Center
09:35AM 36.1531 -76.4383 200° South 360 414 38,000  Level Washington Center
09:36AM 36.0589 -76.4861 202° Southwest 360 414 38,000  Level Washington Center
09:37AM 35.9667 -76.5286 200° South 360 414 38,000  Level Washington Center
09:38AM 35.8725 -76.5736 201° Southwest 360 414 38,000  Level Washington Center
09:39AM 35.7781 -76.6186 201° Southwest 360 414 38,000  Level Washington Center
09:40AM 35.6817 -76.6633 201° Southwest 365 420 38,000  Level Washington Center
09:41AM 35.5894 -76.7083 202° Southwest 365 420 38,000  Level Washington Center
09:42AM 35.4953 -76.7503 200° South 365 420 38,000  Level Washington Center
09:43AM 35.3925 -76.8022 202° Southwest 370 426 38,000  Level Washington Center
09:44AM 35.2939 -76.8467 200° South 375 432 38,000  Level Washington Center
09:45AM 35.1997 -76.8908 201° Southwest 375 432 38,000  Level Washington Center
09:46AM 35.1011 -76.9375 201° Southwest 375 432 38,000  Level Washington Center
09:47AM 35.0044 -76.9842 202° Southwest 375 432 38,000  Level Washington Center
09:48AM 34.9058 -77.0306 201° Southwest 375 432 38,000  Level Washington Center
09:49AM 34.8072 -77.0744 200° South 375 432 38,000  Level Washington Center
09:50AM 34.7086 -77.1206 201° Southwest 375 432 38,000  Level Washington Center
09:51AM 34.6122 -77.1642 200° South 375 432 38,000  Level Washington Center
09:52AM 34.5156 -77.2078 200° South 375 432 38,000  Level Washington Center
09:53AM 34.4147 -77.2536 201° Southwest 375 432 38,000  Level Washington Center
09:54AM 34.2417 -77.3342 201° Southwest 362 417 38,000  Level Jacksonville Center
09:55AM 34.1436 -77.3781 200° South 373 429 38,000  Level Jacksonville Center
09:56AM 34.0350 -77.4250 200° South 379 436 38,000  Level Jacksonville Center
09:57AM 33.9347 -77.4711 201° Southwest 379 436 38,000  Level Jacksonville Center
09:58AM 33.8364 -77.5147 200° South 384 442 38,000  Level Jacksonville Center
09:59AM 33.7486 -77.5553 201° Southwest 384 442 38,000  Level Jacksonville Center
10:00AM 33.6339 -77.6044 200° South 384 442 38,000  Level Jacksonville Center
10:01AM 33.5333 -77.6503 201° Southwest 384 442 38,000  Level Jacksonville Center
10:02AM 33.4331 -77.6961 201° Southwest 384 442 38,000  Level Jacksonville Center
10:03AM 33.3347 -77.7417 201° Southwest 384 442 38,000  Level Jacksonville Center
10:04AM 33.2322 -77.7847 199° South 384 442 38,000  Level Jacksonville Center
10:05AM 33.1319 -77.8303 201° Southwest 384 442 38,000  Level Jacksonville Center
10:06AM 33.0294 -77.8781 201° Southwest 384 442 38,000  Level Jacksonville Center
10:07AM 32.9289 -77.9208 200° South 384 442 38,000  Level Jacksonville Center
10:08AM 32.8261 -77.9611 198° South 391 450 38,000  Level Jacksonville Center
10:09AM 32.7236 -78.0111 202° Southwest 391 450 38,000  Level Jacksonville Center
10:10AM 32.6189 -78.0561 200° South 391 450 38,000  Level Jacksonville Center
10:11AM 32.5161 -78.0986 199° South 391 450 38,000  Level Jacksonville Center
10:12AM 32.4136 -78.1433 200° South 396 456 38,000  Level Jacksonville Center
10:13AM 32.3089 -78.1883 200° South 396 456 38,000  Level Jacksonville Center
10:14AM 32.2039 -78.2306 199° South 401 461 38,000  Level Jacksonville Center
10:15AM 32.1014 -78.2847 204° Southwest 406 467 38,000  Level Jacksonville Center
10:16AM 32.0008 -78.3264 199° South 401 461 38,000  Level Jacksonville Center
10:17AM 31.8958 -78.3708 200° South 401 461 38,000  Level Jacksonville Center
10:18AM 31.7931 -78.4150 200° South 406 467 38,000  Level Jacksonville Center
10:19AM 31.6881 -78.4567 199° South 401 461 38,000  Level Jacksonville Center
10:20AM 31.5831 -78.4958 198° South 401 461 38,000  Level Jacksonville Center
10:22AM 31.4850 -78.5317 197° South  Level FlightAware Approximate
10:22AM 31.3728 -78.5786 197° South 401 461 38,000  Level Jacksonville Center
10:23AM 31.2678 -78.6150 197° South 401 461 38,000  Level Jacksonville Center
10:24AM 31.1606 -78.6564 198° South 401 461 38,000  Level Jacksonville Center
10:26AM 31.0142 -78.7089 197° South 401 461 38,000  Level Jacksonville Center
10:27AM 30.9069 -78.7500 198° South 396 456 38,000  Level Jacksonville Center
10:28AM 30.8058 -78.7908 199° South 394 453 38,000  Level Jacksonville Center
10:30AM 30.5683 -78.8786 198° South 401 461 38,000  Level Miami Center
10:31AM 30.4572 -78.9175 197° South 407 468 38,000  Level Miami Center
10:32AM 30.3483 -78.9564 197° South 407 468 38,000  Level Miami Center
10:33AM 30.2414 -78.9997 199° South 407 468 38,000  Level Miami Center
10:34AM 30.1367 -79.0361 197° South 407 468 38,000  Level Miami Center
10:35AM 30.0233 -79.0792 198° South 414 476 38,000  Level Miami Center
10:36AM 29.9142 -79.1297 202° Southwest 409 471 38,000  Level Miami Center
10:37AM 29.8031 -79.1656 196° South 404 465 38,000  Level Miami Center
10:38AM 29.6900 -79.1919 191° South 410 472 38,000  Level Miami Center
10:39AM 29.5792 -79.2181 192° South 415 478 38,000  Level Miami Center
10:40AM 29.4639 -79.2417 190° South 415 478 38,000  Level Miami Center
10:41AM 29.3611 -79.2800 198° South 408 470 38,000  Level Miami Center
10:42AM 29.2461 -79.3014 189° South 415 478 38,000 -480 Level Miami Center
10:43AM 29.1308 -79.3297 192° South 415 478 37,100 -960 Descending Miami Center
10:44AM 29.0217 -79.3581 193° South 410 472 36,100 -960 Descending Miami Center
10:45AM 28.9067 -79.3839 191° South 416 479 35,200 -960 Descending Miami Center
10:46AM 28.7914 -79.4119 192° South 416 479 34,200 -600 Descending Miami Center
10:47AM 28.6781 -79.4403 192° South 416 479 34,000 -120 Descending Miami Center
10:48AM 28.5650 -79.4683 192° South 416 479 34,000  Level Miami Center
10:49AM 28.4517 -79.4989 193° South 416 479 34,000  Level Miami Center
10:50AM 28.3364 -79.5292 193° South 416 479 34,000  Level Miami Center
10:51AM 28.2211 -79.5569 192° South 416 479 34,000  Level Miami Center
10:52AM 28.1036 -79.5825 191° South 421 484 34,000  Level Miami Center
10:53AM 27.9903 -79.6103 192° South 421 484 34,000  Level Miami Center
10:54AM 27.8750 -79.6381 192° South 421 484 34,000 -480 Level Miami Center
10:55AM 27.7617 -79.6681 193° South 421 484 33,100 -1,680 Descending Miami Center
10:56AM 27.6483 -79.6981 193° South 421 484 30,700 -2,340 Descending Miami Center
10:57AM 27.5456 -79.7189 190° South 416 479 28,500 -2,160 Descending Miami Center
10:58AM 27.4367 -79.7444 192° South 411 473 26,400 -2,220 Descending Miami Center
10:59AM 27.3211 -79.7694 191° South 396 456 24,100 -1,620 Descending Miami Center
11:00AM 27.2172 -79.7483 170° South 386 444 23,200 -1,200 Descending Miami Center
11:01AM 27.1156 -79.7200 166° South 386 444 21,700 -2,400 Descending Miami Center
11:02AM 27.0200 -79.6875 163° South 391 450 18,400 -2,760 Descending Miami Center
11:03AM 26.9100 -79.6567 166° South 396 456 16,200 -2,040 Descending Miami Center
11:04AM 26.7950 -79.6611 182° South 375 432 14,400 -1,680 Descending Miami Center
11:05AM 26.7064 -79.7078 205° Southwest 358 412 12,900 -1,800 Descending Miami Center
11:06AM 26.6200 -79.7475 202° Southwest 331 381 11,000 -1,980 Descending Miami Center
11:07AM 26.5547 -79.7783 203° Southwest 319 367 9,500 -1,740 Descending Miami Center
11:07AM 26.5397 -79.7850 202° Southwest 323 372 9,200 -1,380 Descending Miami Center
11:08AM 26.4767 -79.8158 204° Southwest 301 346 8,100 -720 Descending Miami Center
11:09AM 26.4089 -79.8558 208° Southwest 243 280 8,000 -60 Descending Miami Center
11:10AM 26.3519 -79.8892 208° Southwest 234 269 8,000 -360 Level Miami Center
11:11AM 26.2847 -79.8969 186° South 233 268 7,300 -840 Descending Miami Center
11:12AM 26.2178 -79.9044 186° South 238 274 6,300 -1,200 Descending Miami Center
11:13AM 26.1508 -79.9119 186° South 231 266 5,100 -1,260 Descending Miami Center
11:14AM 26.0919 -79.9336 198° South 226 260 3,800 -1,320 Descending Miami Center
11:15AM 26.0739 -79.9956 252° West 196 226 2,400 -1,200 Descending Miami Center
11:16AM 26.0747 -80.0581 271° West 196 226 1,400 -960 Descending Miami Center
11:17AM 26.0714 -80.1089 266° West 142 163 600 -840 Descending Miami Center
11:19AM 26.0726 -80.1527 270° West  Level Estimated
11:26AM 26.0726 -80.1527 90° East  Level Estimated